createdAt,value
2022-09-11T00:04:01.501Z,99636.59
2022-09-11T00:09:01.936Z,99640.06
2022-09-11T00:13:54.361Z,99634.97
2022-09-11T00:18:46.888Z,99644.47
2022-09-11T00:23:38.566Z,99646.03
2022-09-11T00:28:30.786Z,99646.16
2022-09-11T00:33:22.901Z,99642.50
2022-09-11T00:38:17.371Z,99634.81
2022-09-11T00:43:10.432Z,99627.59
2022-09-11T00:48:04.156Z,99628.31
2022-09-11T00:53:03.434Z,99633.41
2022-09-11T00:58:03.785Z,99626.78
2022-09-11T01:02:57.130Z,99624.28
2022-09-11T01:07:54.257Z,99624.78
2022-09-11T01:12:45.774Z,99621.69
2022-09-11T01:17:54.134Z,99627.81
2022-09-11T01:23:15.983Z,99618.25
2022-09-11T01:28:14.576Z,99618.09
2022-09-11T01:33:17.875Z,99616.72
2022-09-11T01:38:17.204Z,99626.50
2022-09-11T01:43:27.065Z,99621.78
2022-09-11T01:48:24.228Z,99614.09
2022-09-11T01:53:20.792Z,99605.34
2022-09-11T01:58:23.285Z,99617.03
2022-09-11T02:03:38.287Z,99611.00
2022-09-11T02:08:49.152Z,99616.69
2022-09-11T02:13:50.059Z,99618.00
2022-09-11T02:18:48.488Z,99609.25
2022-09-11T02:23:40.261Z,99592.78
2022-09-11T02:28:31.924Z,99598.25
2022-09-11T02:33:32.414Z,99602.84
2022-09-11T02:38:42.860Z,99594.09
2022-09-11T02:43:45.569Z,99586.41
2022-09-11T02:49:00.253Z,99574.06
2022-09-11T02:53:57.801Z,99572.19
2022-09-11T02:59:03.658Z,99572.69
2022-09-11T03:03:55.595Z,99575.63
2022-09-11T03:08:47.768Z,99575.03
2022-09-11T03:13:39.832Z,99578.81
2022-09-11T03:18:32.037Z,99576.34
2022-09-11T03:23:23.663Z,99579.06
2022-09-11T03:28:15.234Z,99573.63
2022-09-11T03:33:07.412Z,99571.38
2022-09-11T03:37:59.024Z,99568.66
2022-09-11T03:42:50.596Z,99566.75
2022-09-11T03:47:42.284Z,99564.25
2022-09-11T03:52:34.751Z,99560.94
2022-09-11T03:57:26.605Z,99559.53
2022-09-11T04:02:25.785Z,99555.13
2022-09-11T04:07:17.405Z,99550.16
2022-09-11T04:12:09.088Z,99560.00
2022-09-11T04:17:00.680Z,99541.75
2022-09-11T04:21:52.255Z,99543.44
2022-09-11T04:26:43.829Z,99540.72
2022-09-11T04:31:36.623Z,99535.50
2022-09-11T04:36:30.075Z,99537.63
2022-09-11T04:41:22.223Z,99523.91
2022-09-11T04:46:17.425Z,99530.75
2022-09-11T04:51:09.125Z,99520.13
2022-09-11T04:56:07.907Z,99513.63
2022-09-11T05:00:59.624Z,99506.50
2022-09-11T05:05:51.221Z,99512.44
2022-09-11T05:10:42.773Z,99520.00
2022-09-11T05:15:34.645Z,99523.44
2022-09-11T05:20:26.185Z,99532.66
2022-09-11T05:25:18.612Z,99533.94
2022-09-11T05:30:11.144Z,99537.50
2022-09-11T05:35:02.747Z,99534.19
2022-09-11T05:39:54.582Z,99531.47
2022-09-11T05:44:47.275Z,99538.56
2022-09-11T05:49:38.818Z,99539.75
2022-09-11T05:54:30.405Z,99539.53
2022-09-11T05:59:21.996Z,99545.56
2022-09-11T06:04:14.124Z,99535.63
2022-09-11T06:09:06.908Z,99537.63
2022-09-11T06:13:58.474Z,99540.72
2022-09-11T06:18:51.530Z,99531.59
2022-09-11T06:23:43.408Z,99540.72
2022-09-11T06:28:37.847Z,99537.75
2022-09-11T06:33:34.586Z,99551.94
2022-09-11T06:38:26.908Z,99558.59
2022-09-11T06:43:18.585Z,99551.00
2022-09-11T06:48:10.369Z,99541.78
2022-09-11T06:53:01.931Z,99544.50
2022-09-11T06:57:53.848Z,99542.59
2022-09-11T07:02:46.400Z,99539.28
2022-09-11T07:07:39.470Z,99540.34
2022-09-11T07:12:32.113Z,99535.47
2022-09-11T07:17:23.743Z,99532.41
2022-09-11T07:22:15.654Z,99538.91
2022-09-11T07:27:07.281Z,99536.91
2022-09-11T07:31:59.000Z,99543.91
2022-09-11T07:36:51.889Z,99540.72
2022-09-11T07:41:43.479Z,99540.47
2022-09-11T07:46:35.836Z,99529.69
2022-09-11T07:51:28.209Z,99528.16
2022-09-11T07:56:23.959Z,99513.59
2022-09-11T08:01:21.216Z,99512.75
2022-09-11T08:06:22.101Z,99506.66
2022-09-11T08:11:17.269Z,99499.78
2022-09-11T08:16:09.431Z,99496.56
2022-09-11T08:21:03.509Z,99502.47
2022-09-11T08:25:57.304Z,99507.78
2022-09-11T08:30:48.930Z,99513.44
2022-09-11T08:35:40.518Z,99515.59
2022-09-11T08:40:38.068Z,99507.63
2022-09-11T08:45:35.373Z,99515.00
2022-09-11T08:50:41.485Z,99512.53
2022-09-11T08:55:41.552Z,99512.69
2022-09-11T09:00:49.652Z,99511.84
2022-09-11T09:05:58.574Z,99509.06
2022-09-11T09:10:50.246Z,99505.22
2022-09-11T09:15:53.861Z,99511.16
2022-09-11T09:20:52.601Z,99503.56
2022-09-11T09:25:45.245Z,99503.91
2022-09-11T09:31:03.931Z,99495.63
2022-09-11T09:35:55.580Z,99501.25
2022-09-11T09:41:18.783Z,99505.34
2022-09-11T09:46:13.376Z,99501.09
2022-09-11T09:51:05.310Z,99483.88
2022-09-11T09:56:00.302Z,99498.19
2022-09-11T10:00:52.106Z,99494.72
2022-09-11T10:05:44.929Z,99497.84
2022-09-11T10:10:38.906Z,99495.56
2022-09-11T10:15:31.173Z,99489.78
2022-09-11T10:20:26.942Z,99484.56
2022-09-11T10:25:28.290Z,99485.97
2022-09-11T10:30:33.036Z,99496.09
2022-09-11T10:35:27.890Z,99489.03
2022-09-11T10:40:22.874Z,99489.06
2022-09-11T10:45:17.330Z,99497.81
2022-09-11T10:50:18.142Z,99497.25
2022-09-11T10:55:15.674Z,99486.56
2022-09-11T11:00:27.204Z,99482.78
2022-09-11T11:05:36.140Z,99469.44
2022-09-11T11:10:52.568Z,99474.69
2022-09-11T11:16:15.455Z,99468.38
2022-09-11T11:21:24.737Z,99452.53
2022-09-11T11:26:35.324Z,99446.00
2022-09-11T11:32:00.818Z,99437.03
2022-09-11T11:37:12.597Z,99427.69
2022-09-11T11:42:21.999Z,99414.28
2022-09-11T11:47:16.677Z,99419.81
2022-09-11T11:52:27.195Z,99414.97
2022-09-11T11:57:22.414Z,99410.06
2022-09-11T12:02:22.085Z,99406.72
2022-09-11T12:07:27.614Z,99406.72
2022-09-11T12:12:21.361Z,99400.63
2022-09-11T12:17:33.254Z,99386.56
2022-09-11T12:22:38.354Z,99392.59
2022-09-11T12:27:36.346Z,99388.19
2022-09-11T12:32:41.869Z,99376.97
2022-09-11T12:37:38.709Z,99379.19
2022-09-11T12:42:30.221Z,99365.72
2022-09-11T12:47:29.342Z,99377.03
2022-09-11T12:52:30.613Z,99358.38
2022-09-11T12:57:29.217Z,99357.31
2022-09-11T13:02:53.199Z,99354.53
2022-09-11T13:07:52.230Z,99337.75
2022-09-11T13:12:56.273Z,99337.94
2022-09-11T13:17:48.277Z,99329.38
2022-09-11T13:22:39.850Z,99332.06
2022-09-11T13:27:31.550Z,99325.31
2022-09-11T13:32:23.404Z,99309.00
2022-09-11T13:37:34.633Z,99321.09
2022-09-11T13:42:26.354Z,99334.22
2022-09-11T13:47:26.750Z,99309.16
2022-09-11T13:52:22.109Z,99302.69
2022-09-11T13:57:15.430Z,99292.56
2022-09-11T14:02:31.406Z,99285.31
2022-09-11T14:07:26.307Z,99271.94
2022-09-11T14:12:20.381Z,99271.94
2022-09-11T14:17:13.869Z,99266.31
2022-09-11T14:22:21.666Z,99264.88
2022-09-11T14:27:32.842Z,99258.09
2022-09-11T14:32:37.049Z,99244.41
2022-09-11T14:37:34.580Z,99250.00
2022-09-11T14:42:31.671Z,99236.66
2022-09-11T14:47:28.246Z,99242.16
2022-09-11T14:52:25.713Z,99228.06
2022-09-11T14:57:22.929Z,99223.91
2022-09-11T15:02:21.400Z,99222.69
2022-09-11T15:07:15.097Z,99217.06
2022-09-11T15:12:08.745Z,99218.03
2022-09-11T15:17:02.506Z,99211.16
2022-09-11T15:21:56.673Z,99213.94
2022-09-11T15:26:48.343Z,99204.34
2022-09-11T15:31:39.930Z,99194.44
2022-09-11T15:36:32.697Z,99182.81
2022-09-11T15:41:25.427Z,99181.94
2022-09-11T15:46:19.502Z,99180.75
2022-09-11T15:51:15.050Z,99171.38
2022-09-11T15:56:12.289Z,99170.63
2022-09-11T16:01:04.105Z,99165.22
2022-09-11T16:05:57.122Z,99151.91
2022-09-11T16:10:56.910Z,99142.59
2022-09-11T16:15:51.289Z,99128.38
2022-09-11T16:20:49.867Z,99130.38
2022-09-11T16:25:42.381Z,99118.09
2022-09-11T16:30:49.553Z,99121.94
2022-09-11T16:35:42.828Z,99108.56
2022-09-11T16:40:44.818Z,99111.59
2022-09-11T16:45:38.674Z,99109.16
2022-09-11T16:50:36.809Z,99109.72
2022-09-11T16:55:28.593Z,99104.84
2022-09-11T17:00:26.699Z,99091.94
2022-09-11T17:05:18.223Z,99089.84
2022-09-11T17:10:16.735Z,99091.25
2022-09-11T17:15:08.886Z,99075.63
2022-09-11T17:20:00.763Z,99069.31
2022-09-11T17:24:52.409Z,99070.19
2022-09-11T17:29:44.954Z,99067.50
2022-09-11T17:34:37.257Z,99061.75
2022-09-11T17:39:28.989Z,99057.13
2022-09-11T17:44:24.193Z,99056.63
2022-09-11T17:49:16.057Z,99045.13
2022-09-11T17:54:07.789Z,99042.16
2022-09-11T17:59:00.752Z,99037.03
2022-09-11T18:03:57.083Z,99035.66
2022-09-11T18:08:48.823Z,99025.31
2022-09-11T18:13:43.095Z,99022.84
2022-09-11T18:18:35.051Z,99031.69
2022-09-11T18:23:26.786Z,99028.69
2022-09-11T18:28:20.083Z,99027.34
2022-09-11T18:33:12.186Z,99026.28
2022-09-11T18:38:05.008Z,99020.84
2022-09-11T18:42:56.719Z,99026.63
2022-09-11T18:47:52.796Z,99029.44
2022-09-11T18:52:44.581Z,99031.16
2022-09-11T18:57:41.185Z,99021.91
2022-09-11T19:02:34.159Z,99029.91
2022-09-11T19:07:25.775Z,99032.44
2022-09-11T19:12:17.477Z,99032.28
2022-09-11T19:17:09.155Z,99027.41
2022-09-11T19:22:00.812Z,99024.19
2022-09-11T19:26:52.870Z,99017.97
2022-09-11T19:31:44.691Z,99013.31
2022-09-11T19:36:36.656Z,99007.88
2022-09-11T19:41:33.367Z,99008.44
2022-09-11T19:46:27.411Z,99006.28
2022-09-11T19:51:28.657Z,99001.63
2022-09-11T19:56:20.348Z,98999.97
2022-09-11T20:01:17.373Z,99008.47
2022-09-11T20:06:10.434Z,99011.19
2022-09-11T20:11:04.641Z,99012.31
2022-09-11T20:15:56.362Z,99006.56
2022-09-11T20:20:47.996Z,99012.56
2022-09-11T20:25:39.894Z,99015.03
2022-09-11T20:30:35.645Z,99006.78
2022-09-11T20:35:27.368Z,99006.56
2022-09-11T20:40:19.739Z,99013.38
2022-09-11T20:45:11.614Z,99007.88
2022-09-11T20:50:04.829Z,99005.44
2022-09-11T20:54:56.644Z,99004.34
2022-09-11T20:59:49.931Z,98997.19
2022-09-11T21:04:41.867Z,98992.00
2022-09-11T21:09:33.540Z,99001.06
2022-09-11T21:14:25.302Z,98990.09
2022-09-11T21:19:17.007Z,98992.00
2022-09-11T21:24:12.540Z,98982.69
2022-09-11T21:29:07.010Z,98987.06
2022-09-11T21:33:59.149Z,98976.38
2022-09-11T21:38:50.857Z,98971.19
2022-09-11T21:43:42.654Z,98966.25
2022-09-11T21:48:39.905Z,98965.69
2022-09-11T21:53:31.597Z,98967.13
2022-09-11T21:58:23.290Z,98965.19
2022-09-11T22:03:16.764Z,98970.41
2022-09-11T22:08:09.081Z,98958.09
2022-09-11T22:13:00.898Z,98949.84
2022-09-11T22:17:53.796Z,98949.84
2022-09-11T22:22:46.278Z,98943.84
2022-09-11T22:27:37.918Z,98955.91
2022-09-11T22:32:30.821Z,98948.78
2022-09-11T22:37:22.433Z,98938.38
2022-09-11T22:42:14.070Z,98942.22
2022-09-11T22:47:05.787Z,98931.84
2022-09-11T22:51:57.490Z,98926.91
2022-09-11T22:56:49.274Z,98927.47
2022-09-11T23:01:40.949Z,98916.50
2022-09-11T23:06:51.334Z,98919.81
2022-09-11T23:11:44.556Z,98910.50
2022-09-11T23:16:36.276Z,98911.91
2022-09-11T23:21:29.633Z,98905.06
2022-09-11T23:26:21.657Z,98910.56
2022-09-11T23:31:22.422Z,98912.50
2022-09-11T23:36:17.168Z,98898.00
2022-09-11T23:41:08.923Z,98898.03
2022-09-11T23:46:00.729Z,98896.16
2022-09-11T23:50:52.427Z,98887.69
2022-09-11T23:55:47.869Z,98892.91
